Southwestern Grand Banks: Past 24 Hour Conditions

 

Grates Cove

05:30 PM NST 26 November 2014
This table is a summary of hourly weather conditions for the past 24 hours.
Date / Time
(NST)
Wind(knots) Conditions Visibility(km) Pressure(kPa) Air tempC) Relative humidity(%) Dew pointC)
26 November 2014
17:30 W 17 N/A N/A 101.4 6 75 1
16:30 W 16 N/A N/A 101.2 5 78 2
15:30 W 16 gust 22 N/A N/A 101.2 6 75 2
14:30 WNW 14 gust 22 N/A N/A 101.0 6 75 2
13:30 W 23 N/A N/A 100.9 6 74 1
12:30 W 21 gust 27 N/A N/A 100.9 6 76 2
11:30 W 22 gust 29 N/A N/A 100.8 6 76 2
10:30 WNW 19 gust 24 N/A N/A 100.8 5 76 2
9:30 WNW 21 gust 34 N/A N/A 100.7 5 75 1
8:30 W 25 gust 32 N/A N/A 100.5 6 75 2
7:30 W 24 gust 35 N/A N/A 100.4 6 76 3
6:30 WSW 25 gust 35 N/A N/A 100.3 7 83 5
5:30 WSW 22 gust 30 N/A N/A 100.3 8 87 6
4:30 W 25 gust 30 N/A N/A 100.3 8 95 7
3:30 W 24 gust 32 N/A N/A 100.2 7 98 7
2:30 WSW 24 gust 31 N/A N/A 100.1 7 98 7
1:30 WSW 23 gust 33 N/A N/A 100.1 8 98 7
0:30 WSW 30 N/A N/A 100.1 8 98 8
25 November 2014
23:30 WSW 21 gust 27 N/A N/A 100.0 9 95 8
22:30 SW 18 gust 25 N/A N/A 100.0 9 95 8
21:30 WSW 28 gust 35 N/A N/A 100.0 10 89 9
20:30 WSW 27 gust 34 N/A N/A 100.1 10 97 9
19:30 WSW 28 gust 36 N/A N/A 100.0 9 97 9
18:30 WSW 28 gust 37 N/A N/A 99.9 10 95 9
17:30 WSW 32 gust 38 N/A N/A 99.9 10 94 9
 
Map of Atlantic - Newfoundland marine weather areas Southwestern Grand Banks - 44138 Banquereau - 44139 Tail of the Bank - 44140 Nickerson Bank - 44251 Northeast Burgeo Bank - 44255 Blanc-Sablon Airport Cap Whittle Chevery Natashquan Airport Heath Point Miscou Island Grand Étang Ingonish Beach North Mountain St.Paul Island J.A. Douglas McCurdy Sydney Airport Charlottetown Airport East Point North Cape Argentia Bonavista Burgeo Cape Race Corner Brook Daniel's Harbour Englee Ferolle Point La Scie Port aux Basques Rocky Harbour Sagona Island St. Anthony Airport St. John's Int'l Airport St. Lawrence Stephenville Airport Twillingate Winterland Wreckhouse Cartwright Airport Mary's Harbour Grates Cove Pool's Island Marticot Island Long Pond Îles de la Madeleine Airport
Legend: buoyBuoy land stationLand Station